sensor_id;sensor_type;location;lat;lon;timestamp;temperature;humidity
75010;DHT22;63564;46.840;18.336;2022-12-20T00:01:20;0.16;93.91
75010;DHT22;63564;46.840;18.336;2022-12-20T00:04:21;-0.09;94.61
75010;DHT22;63564;46.840;18.336;2022-12-20T00:07:21;0.06;94.37
75010;DHT22;63564;46.840;18.336;2022-12-20T00:10:22;0.13;94.16
75010;DHT22;63564;46.840;18.336;2022-12-20T00:13:22;-0.02;94.46
75010;DHT22;63564;46.840;18.336;2022-12-20T00:16:25;0.12;94.40
75010;DHT22;63564;46.840;18.336;2022-12-20T00:19:26;-0.03;94.86
75010;DHT22;63564;46.840;18.336;2022-12-20T00:22:26;0.09;94.35
75010;DHT22;63564;46.840;18.336;2022-12-20T00:25:27;0.13;94.38
75010;DHT22;63564;46.840;18.336;2022-12-20T00:28:27;0.08;94.90
75010;DHT22;63564;46.840;18.336;2022-12-20T00:31:29;0.18;94.05
75010;DHT22;63564;46.840;18.336;2022-12-20T00:34:30;0.33;93.91
75010;DHT22;63564;46.840;18.336;2022-12-20T00:37:30;0.18;93.41
75010;DHT22;63564;46.840;18.336;2022-12-20T00:40:30;0.23;93.37
75010;DHT22;63564;46.840;18.336;2022-12-20T00:43:32;0.26;93.73
75010;DHT22;63564;46.840;18.336;2022-12-20T00:46:32;0.13;93.67
75010;DHT22;63564;46.840;18.336;2022-12-20T00:49:33;0.20;94.78
75010;DHT22;63564;46.840;18.336;2022-12-20T00:52:33;0.26;93.45
75010;DHT22;63564;46.840;18.336;2022-12-20T00:55:34;0.23;93.57
75010;DHT22;63564;46.840;18.336;2022-12-20T00:58:37;0.20;93.04
75010;DHT22;63564;46.840;18.336;2022-12-20T01:01:37;0.22;93.55
75010;DHT22;63564;46.840;18.336;2022-12-20T01:04:37;-0.01;94.19
75010;DHT22;63564;46.840;18.336;2022-12-20T01:07:38;0.20;93.51
75010;DHT22;63564;46.840;18.336;2022-12-20T01:10:38;0.05;93.98
75010;DHT22;63564;46.840;18.336;2022-12-20T01:13:41;0.09;94.41
75010;DHT22;63564;46.840;18.336;2022-12-20T01:16:46;0.19;93.60
75010;DHT22;63564;46.840;18.336;2022-12-20T01:19:46;0.18;93.75
75010;DHT22;63564;46.840;18.336;2022-12-20T01:22:47;0.10;94.02
75010;DHT22;63564;46.840;18.336;2022-12-20T01:25:49;0.08;94.47
75010;DHT22;63564;46.840;18.336;2022-12-20T01:28:58;0.16;93.99
75010;DHT22;63564;46.840;18.336;2022-12-20T01:31:59;0.16;93.41
75010;DHT22;63564;46.840;18.336;2022-12-20T01:34:59;-0.05;94.15
75010;DHT22;63564;46.840;18.336;2022-12-20T01:38:00;0.05;94.63
75010;DHT22;63564;46.840;18.336;2022-12-20T01:41:00;0.18;93.61
75010;DHT22;63564;46.840;18.336;2022-12-20T01:47:03;0.12;93.61
75010;DHT22;63564;46.840;18.336;2022-12-20T01:50:04;0.22;93.17
75010;DHT22;63564;46.840;18.336;2022-12-20T01:53:05;0.08;93.84
75010;DHT22;63564;46.840;18.336;2022-12-20T01:56:06;0.08;93.54
75010;DHT22;63564;46.840;18.336;2022-12-20T01:59:07;-0.08;94.39
75010;DHT22;63564;46.840;18.336;2022-12-20T02:02:10;0.01;93.60
75010;DHT22;63564;46.840;18.336;2022-12-20T02:05:11;-0.06;93.94
75010;DHT22;63564;46.840;18.336;2022-12-20T02:08:15;0.02;94.27
75010;DHT22;63564;46.840;18.336;2022-12-20T02:11:36;0.12;93.68
75010;DHT22;63564;46.840;18.336;2022-12-20T02:30:35;-0.11;94.45
75010;DHT22;63564;46.840;18.336;2022-12-20T02:33:36;-0.11;93.88
75010;DHT22;63564;46.840;18.336;2022-12-20T02:36:37;-0.15;94.22
75010;DHT22;63564;46.840;18.336;2022-12-20T02:39:39;-0.26;94.67
75010;DHT22;63564;46.840;18.336;2022-12-20T02:42:41;-0.22;94.32
75010;DHT22;63564;46.840;18.336;2022-12-20T02:45:41;-0.23;94.11
75010;DHT22;63564;46.840;18.336;2022-12-20T02:48:43;-0.29;94.37
75010;DHT22;63564;46.840;18.336;2022-12-20T02:51:48;-0.39;94.96
75010;DHT22;63564;46.840;18.336;2022-12-20T02:54:54;-0.39;94.62
75010;DHT22;63564;46.840;18.336;2022-12-20T02:57:59;-0.29;94.54
75010;DHT22;63564;46.840;18.336;2022-12-20T03:01:06;-0.23;93.84
75010;DHT22;63564;46.840;18.336;2022-12-20T03:04:08;-0.25;94.12
75010;DHT22;63564;46.840;18.336;2022-12-20T03:07:12;-0.34;94.37
75010;DHT22;63564;46.840;18.336;2022-12-20T03:10:14;-0.49;94.57
75010;DHT22;63564;46.840;18.336;2022-12-20T03:13:15;-0.33;94.29
75010;DHT22;63564;46.840;18.336;2022-12-20T03:16:15;-0.29;94.09
75010;DHT22;63564;46.840;18.336;2022-12-20T03:19:16;-0.33;94.23
75010;DHT22;63564;46.840;18.336;2022-12-20T03:22:16;-0.29;94.20
75010;DHT22;63564;46.840;18.336;2022-12-20T03:25:16;-0.30;94.33
75010;DHT22;63564;46.840;18.336;2022-12-20T03:28:17;-0.30;94.03
75010;DHT22;63564;46.840;18.336;2022-12-20T03:31:17;-0.40;94.26
75010;DHT22;63564;46.840;18.336;2022-12-20T03:34:18;-0.40;94.47
75010;DHT22;63564;46.840;18.336;2022-12-20T03:37:18;-0.46;94.11
75010;DHT22;63564;46.840;18.336;2022-12-20T03:40:18;-0.47;94.72
75010;DHT22;63564;46.840;18.336;2022-12-20T03:43:19;-0.28;93.72
75010;DHT22;63564;46.840;18.336;2022-12-20T03:46:19;-0.33;93.69
75010;DHT22;63564;46.840;18.336;2022-12-20T03:49:20;-0.28;93.91
75010;DHT22;63564;46.840;18.336;2022-12-20T03:52:20;-0.49;94.51
75010;DHT22;63564;46.840;18.336;2022-12-20T03:55:20;-0.46;94.44
75010;DHT22;63564;46.840;18.336;2022-12-20T03:58:21;-0.37;93.65
75010;DHT22;63564;46.840;18.336;2022-12-20T04:01:24;-0.56;94.27
75010;DHT22;63564;46.840;18.336;2022-12-20T04:04:25;-0.40;94.03
75010;DHT22;63564;46.840;18.336;2022-12-20T04:07:25;-0.59;94.38
75010;DHT22;63564;46.840;18.336;2022-12-20T04:10:26;-0.89;95.44
75010;DHT22;63564;46.840;18.336;2022-12-20T04:13:26;-0.68;95.14
75010;DHT22;63564;46.840;18.336;2022-12-20T04:16:28;-0.91;95.39
75010;DHT22;63564;46.840;18.336;2022-12-20T04:19:29;-0.78;95.37
75010;DHT22;63564;46.840;18.336;2022-12-20T04:22:29;-0.88;95.54
75010;DHT22;63564;46.840;18.336;2022-12-20T04:25:29;-0.64;94.84
75010;DHT22;63564;46.840;18.336;2022-12-20T04:28:30;-0.61;94.64
75010;DHT22;63564;46.840;18.336;2022-12-20T04:31:31;-0.70;94.88
75010;DHT22;63564;46.840;18.336;2022-12-20T04:34:31;-0.59;94.89
75010;DHT22;63564;46.840;18.336;2022-12-20T04:37:32;-0.47;94.12
75010;DHT22;63564;46.840;18.336;2022-12-20T04:40:32;-0.64;94.17
75010;DHT22;63564;46.840;18.336;2022-12-20T04:43:32;-0.52;94.73
75010;DHT22;63564;46.840;18.336;2022-12-20T04:46:33;-0.46;94.05
75010;DHT22;63564;46.840;18.336;2022-12-20T04:49:33;-0.61;93.83
75010;DHT22;63564;46.840;18.336;2022-12-20T04:52:34;-0.73;94.18
75010;DHT22;63564;46.840;18.336;2022-12-20T04:55:52;-0.63;94.71
75010;DHT22;63564;46.840;18.336;2022-12-20T04:58:53;-0.50;94.01
75010;DHT22;63564;46.840;18.336;2022-12-20T05:01:54;-0.52;94.34
75010;DHT22;63564;46.840;18.336;2022-12-20T05:04:55;-0.59;93.95
75010;DHT22;63564;46.840;18.336;2022-12-20T05:07:55;-0.44;93.28
75010;DHT22;63564;46.840;18.336;2022-12-20T05:10:55;-0.26;93.72
75010;DHT22;63564;46.840;18.336;2022-12-20T05:13:56;-0.49;93.55
75010;DHT22;63564;46.840;18.336;2022-12-20T05:16:56;-0.68;93.82
75010;DHT22;63564;46.840;18.336;2022-12-20T05:19:56;-0.54;93.35
75010;DHT22;63564;46.840;18.336;2022-12-20T05:22:57;-0.74;94.07
75010;DHT22;63564;46.840;18.336;2022-12-20T05:26:16;-0.71;93.73
75010;DHT22;63564;46.840;18.336;2022-12-20T05:29:16;-0.71;93.79
75010;DHT22;63564;46.840;18.336;2022-12-20T05:32:17;-0.74;93.44
75010;DHT22;63564;46.840;18.336;2022-12-20T05:35:17;-0.67;93.40
75010;DHT22;63564;46.840;18.336;2022-12-20T05:38:17;-0.78;93.37
75010;DHT22;63564;46.840;18.336;2022-12-20T05:41:18;-0.87;93.95
75010;DHT22;63564;46.840;18.336;2022-12-20T05:44:19;-0.92;94.42
75010;DHT22;63564;46.840;18.336;2022-12-20T05:47:21;-0.92;94.23
75010;DHT22;63564;46.840;18.336;2022-12-20T05:50:21;-0.85;94.36
75010;DHT22;63564;46.840;18.336;2022-12-20T05:53:22;-1.05;94.53
75010;DHT22;63564;46.840;18.336;2022-12-20T05:56:23;-0.91;94.34
75010;DHT22;63564;46.840;18.336;2022-12-20T05:59:23;-0.77;94.12
75010;DHT22;63564;46.840;18.336;2022-12-20T06:02:24;-0.94;94.20
75010;DHT22;63564;46.840;18.336;2022-12-20T06:05:24;-0.77;93.78
75010;DHT22;63564;46.840;18.336;2022-12-20T06:08:25;-0.77;93.80
75010;DHT22;63564;46.840;18.336;2022-12-20T06:11:26;-0.67;93.19
75010;DHT22;63564;46.840;18.336;2022-12-20T06:14:26;-0.81;93.29
75010;DHT22;63564;46.840;18.336;2022-12-20T06:17:27;-0.80;93.80
75010;DHT22;63564;46.840;18.336;2022-12-20T06:20:27;-1.08;94.18
75010;DHT22;63564;46.840;18.336;2022-12-20T06:23:27;-1.19;95.13
75010;DHT22;63564;46.840;18.336;2022-12-20T06:26:28;-1.12;94.80
75010;DHT22;63564;46.840;18.336;2022-12-20T06:29:35;-1.08;94.72
75010;DHT22;63564;46.840;18.336;2022-12-20T06:32:36;-1.02;94.20
75010;DHT22;63564;46.840;18.336;2022-12-20T06:35:37;-0.97;93.81
75010;DHT22;63564;46.840;18.336;2022-12-20T06:38:38;-0.89;93.14
75010;DHT22;63564;46.840;18.336;2022-12-20T06:41:39;-0.85;93.46
75010;DHT22;63564;46.840;18.336;2022-12-20T06:44:40;-0.97;93.52
75010;DHT22;63564;46.840;18.336;2022-12-20T06:47:40;-0.98;94.12
75010;DHT22;63564;46.840;18.336;2022-12-20T06:50:40;-0.98;93.66
75010;DHT22;63564;46.840;18.336;2022-12-20T06:53:41;-1.04;94.45
75010;DHT22;63564;46.840;18.336;2022-12-20T06:56:41;-0.98;95.13
75010;DHT22;63564;46.840;18.336;2022-12-20T06:59:42;-0.73;96.49
75010;DHT22;63564;46.840;18.336;2022-12-20T07:02:42;-0.50;95.32
75010;DHT22;63564;46.840;18.336;2022-12-20T07:05:50;-0.54;92.89
75010;DHT22;63564;46.840;18.336;2022-12-20T07:08:52;-0.66;92.48
75010;DHT22;63564;46.840;18.336;2022-12-20T07:11:52;-0.87;92.64
75010;DHT22;63564;46.840;18.336;2022-12-20T07:14:53;-0.85;93.33
75010;DHT22;63564;46.840;18.336;2022-12-20T07:17:54;-0.89;93.85
75010;DHT22;63564;46.840;18.336;2022-12-20T07:20:59;-0.67;93.40
75010;DHT22;63564;46.840;18.336;2022-12-20T07:23:59;-0.68;92.26
75010;DHT22;63564;46.840;18.336;2022-12-20T07:27:00;-0.47;92.00
75010;DHT22;63564;46.840;18.336;2022-12-20T07:30:01;-0.60;92.39
75010;DHT22;63564;46.840;18.336;2022-12-20T07:33:01;-0.50;92.18
75010;DHT22;63564;46.840;18.336;2022-12-20T07:36:04;-0.36;93.88
75010;DHT22;63564;46.840;18.336;2022-12-20T07:39:04;-0.73;92.84
75010;DHT22;63564;46.840;18.336;2022-12-20T07:42:05;-0.40;92.32
75010;DHT22;63564;46.840;18.336;2022-12-20T07:45:05;-0.29;94.25
75010;DHT22;63564;46.840;18.336;2022-12-20T07:48:06;0.25;94.74
75010;DHT22;63564;46.840;18.336;2022-12-20T07:51:09;0.47;92.28
75010;DHT22;63564;46.840;18.336;2022-12-20T07:54:12;0.26;90.12
75010;DHT22;63564;46.840;18.336;2022-12-20T08:00:42;1.49;99.99
75010;DHT22;63564;46.840;18.336;2022-12-20T08:03:49;1.84;99.99
75010;DHT22;63564;46.840;18.336;2022-12-20T08:06:52;1.54;99.19
75010;DHT22;63564;46.840;18.336;2022-12-20T08:09:55;1.06;90.50
75010;DHT22;63564;46.840;18.336;2022-12-20T08:12:55;0.74;93.99
75010;DHT22;63564;46.840;18.336;2022-12-20T08:15:57;0.56;91.63
75010;DHT22;63564;46.840;18.336;2022-12-20T08:18:57;0.64;92.82
75010;DHT22;63564;46.840;18.336;2022-12-20T08:21:58;0.58;94.85
75010;DHT22;63564;46.840;18.336;2022-12-20T08:24:58;0.68;97.07
75010;DHT22;63564;46.840;18.336;2022-12-20T08:27:59;0.65;96.88
75010;DHT22;63564;46.840;18.336;2022-12-20T08:31:06;0.06;92.10
75010;DHT22;63564;46.840;18.336;2022-12-20T08:34:08;0.84;99.47
75010;DHT22;63564;46.840;18.336;2022-12-20T08:37:08;0.50;90.82
75010;DHT22;63564;46.840;18.336;2022-12-20T08:40:09;0.58;96.40
75010;DHT22;63564;46.840;18.336;2022-12-20T08:43:10;0.52;93.38
75010;DHT22;63564;46.840;18.336;2022-12-20T08:46:11;0.35;90.79
75010;DHT22;63564;46.840;18.336;2022-12-20T08:49:11;0.87;94.80
75010;DHT22;63564;46.840;18.336;2022-12-20T08:52:12;1.01;89.54
75010;DHT22;63564;46.840;18.336;2022-12-20T08:55:12;1.12;96.24
75010;DHT22;63564;46.840;18.336;2022-12-20T08:58:12;0.56;89.17
75010;DHT22;63564;46.840;18.336;2022-12-20T09:01:19;1.68;99.99
75010;DHT22;63564;46.840;18.336;2022-12-20T09:04:20;3.42;99.99
75010;DHT22;63564;46.840;18.336;2022-12-20T09:07:21;2.94;99.99
75010;DHT22;63564;46.840;18.336;2022-12-20T09:10:21;1.50;98.42
75010;DHT22;63564;46.840;18.336;2022-12-20T09:13:21;2.04;93.70
75010;DHT22;63564;46.840;18.336;2022-12-20T09:16:25;2.45;93.11
75010;DHT22;63564;46.840;18.336;2022-12-20T09:19:25;2.16;88.17
75010;DHT22;63564;46.840;18.336;2022-12-20T09:22:28;1.88;93.48
75010;DHT22;63564;46.840;18.336;2022-12-20T09:25:28;1.89;89.27
75010;DHT22;63564;46.840;18.336;2022-12-20T09:28:29;1.19;94.72
75010;DHT22;63564;46.840;18.336;2022-12-20T09:31:30;1.23;89.37
75010;DHT22;63564;46.840;18.336;2022-12-20T09:34:30;1.19;93.30
75010;DHT22;63564;46.840;18.336;2022-12-20T09:37:31;1.49;90.58
75010;DHT22;63564;46.840;18.336;2022-12-20T09:40:32;1.40;87.91
75010;DHT22;63564;46.840;18.336;2022-12-20T09:43:32;1.21;88.49
75010;DHT22;63564;46.840;18.336;2022-12-20T09:46:33;1.66;87.92
75010;DHT22;63564;46.840;18.336;2022-12-20T09:49:35;1.50;91.94
75010;DHT22;63564;46.840;18.336;2022-12-20T09:56:03;1.32;87.67
75010;DHT22;63564;46.840;18.336;2022-12-20T09:59:10;1.38;93.51
75010;DHT22;63564;46.840;18.336;2022-12-20T10:02:15;1.56;92.87
75010;DHT22;63564;46.840;18.336;2022-12-20T10:05:27;1.56;92.84
75010;DHT22;63564;46.840;18.336;2022-12-20T10:15:32;1.28;93.64
75010;DHT22;63564;46.840;18.336;2022-12-20T10:19:01;1.05;88.60
75010;DHT22;63564;46.840;18.336;2022-12-20T10:22:22;1.12;91.37
75010;DHT22;63564;46.840;18.336;2022-12-20T10:25:30;1.12;89.04
75010;DHT22;63564;46.840;18.336;2022-12-20T10:28:34;1.13;88.60
75010;DHT22;63564;46.840;18.336;2022-12-20T10:31:34;0.80;88.67
75010;DHT22;63564;46.840;18.336;2022-12-20T10:34:35;1.23;88.99
75010;DHT22;63564;46.840;18.336;2022-12-20T10:37:36;1.19;89.86
75010;DHT22;63564;46.840;18.336;2022-12-20T10:40:40;0.95;87.85
75010;DHT22;63564;46.840;18.336;2022-12-20T10:43:43;1.18;87.92
75010;DHT22;63564;46.840;18.336;2022-12-20T10:46:47;1.40;89.34
75010;DHT22;63564;46.840;18.336;2022-12-20T10:49:48;1.46;90.39
75010;DHT22;63564;46.840;18.336;2022-12-20T10:53:19;1.13;89.27
75010;DHT22;63564;46.840;18.336;2022-12-20T10:56:23;1.28;89.31
75010;DHT22;63564;46.840;18.336;2022-12-20T10:59:35;1.43;89.15
75010;DHT22;63564;46.840;18.336;2022-12-20T11:02:38;1.12;89.03
75010;DHT22;63564;46.840;18.336;2022-12-20T11:05:39;1.39;90.91
75010;DHT22;63564;46.840;18.336;2022-12-20T11:08:40;1.12;86.94
75010;DHT22;63564;46.840;18.336;2022-12-20T11:12:00;1.23;91.60
75010;DHT22;63564;46.840;18.336;2022-12-20T11:15:19;1.21;89.60
75010;DHT22;63564;46.840;18.336;2022-12-20T11:18:41;0.83;88.54
75010;DHT22;63564;46.840;18.336;2022-12-20T11:22:13;1.16;87.08
75010;DHT22;63564;46.840;18.336;2022-12-20T11:39:08;1.06;90.83
75010;DHT22;63564;46.840;18.336;2022-12-20T11:42:34;0.95;89.02
75010;DHT22;63564;46.840;18.336;2022-12-20T11:48:58;1.57;94.38
75010;DHT22;63564;46.840;18.336;2022-12-20T11:58:21;1.60;94.49
75010;DHT22;63564;46.840;18.336;2022-12-20T12:01:45;1.54;90.59
75010;DHT22;63564;46.840;18.336;2022-12-20T12:04:56;1.13;87.95
75010;DHT22;63564;46.840;18.336;2022-12-20T12:08:02;1.50;97.15
75010;DHT22;63564;46.840;18.336;2022-12-20T12:11:21;1.26;89.97
75010;DHT22;63564;46.840;18.336;2022-12-20T12:14:41;1.25;88.58
75010;DHT22;63564;46.840;18.336;2022-12-20T12:18:02;1.18;87.84
75010;DHT22;63564;46.840;18.336;2022-12-20T12:21:09;2.19;98.86
75010;DHT22;63564;46.840;18.336;2022-12-20T12:24:30;1.94;88.42
75010;DHT22;63564;46.840;18.336;2022-12-20T12:27:38;1.47;87.40
75010;DHT22;63564;46.840;18.336;2022-12-20T12:30:44;1.42;90.80
75010;DHT22;63564;46.840;18.336;2022-12-20T12:34:04;1.59;93.15
75010;DHT22;63564;46.840;18.336;2022-12-20T12:51:04;1.85;89.87
75010;DHT22;63564;46.840;18.336;2022-12-20T12:57:16;1.73;91.57
75010;DHT22;63564;46.840;18.336;2022-12-20T13:00:50;1.22;87.41
75010;DHT22;63564;46.840;18.336;2022-12-20T13:06:57;1.23;91.28
75010;DHT22;63564;46.840;18.336;2022-12-20T13:09:58;0.94;87.84
75010;DHT22;63564;46.840;18.336;2022-12-20T13:13:00;1.11;88.64
75010;DHT22;63564;46.840;18.336;2022-12-20T13:16:09;1.19;88.29
75010;DHT22;63564;46.840;18.336;2022-12-20T13:22:25;1.66;88.28
75010;DHT22;63564;46.840;18.336;2022-12-20T13:25:27;1.36;87.51
75010;DHT22;63564;46.840;18.336;2022-12-20T13:31:31;1.32;87.17
75010;DHT22;63564;46.840;18.336;2022-12-20T13:34:38;1.35;86.60
75010;DHT22;63564;46.840;18.336;2022-12-20T13:41:15;0.75;88.81
75010;DHT22;63564;46.840;18.336;2022-12-20T13:44:25;1.18;87.82
75010;DHT22;63564;46.840;18.336;2022-12-20T13:47:35;1.22;87.06
75010;DHT22;63564;46.840;18.336;2022-12-20T13:50:38;1.09;87.25
75010;DHT22;63564;46.840;18.336;2022-12-20T13:53:40;1.05;87.22
75010;DHT22;63564;46.840;18.336;2022-12-20T13:56:49;0.71;88.93
75010;DHT22;63564;46.840;18.336;2022-12-20T13:59:52;0.74;88.74
75010;DHT22;63564;46.840;18.336;2022-12-20T14:02:54;0.88;87.96
75010;DHT22;63564;46.840;18.336;2022-12-20T14:05:58;0.91;88.53
75010;DHT22;63564;46.840;18.336;2022-12-20T14:09:01;0.61;89.06
75010;DHT22;63564;46.840;18.336;2022-12-20T14:12:13;0.57;89.56
75010;DHT22;63564;46.840;18.336;2022-12-20T14:18:25;0.61;89.33
75010;DHT22;63564;46.840;18.336;2022-12-20T14:21:26;0.46;89.38
75010;DHT22;63564;46.840;18.336;2022-12-20T14:24:27;0.39;89.90
75010;DHT22;63564;46.840;18.336;2022-12-20T14:27:32;0.49;89.86
75010;DHT22;63564;46.840;18.336;2022-12-20T14:30:40;0.53;89.60
75010;DHT22;63564;46.840;18.336;2022-12-20T14:33:41;0.50;89.65
75010;DHT22;63564;46.840;18.336;2022-12-20T14:36:50;0.53;89.78
75010;DHT22;63564;46.840;18.336;2022-12-20T14:43:20;0.35;90.90
75010;DHT22;63564;46.840;18.336;2022-12-20T14:46:23;0.30;90.84
75010;DHT22;63564;46.840;18.336;2022-12-20T14:49:25;0.33;91.05
75010;DHT22;63564;46.840;18.336;2022-12-20T14:52:32;0.32;90.91
75010;DHT22;63564;46.840;18.336;2022-12-20T14:55:36;0.30;91.24
75010;DHT22;63564;46.840;18.336;2022-12-20T14:58:38;0.33;91.45
75010;DHT22;63564;46.840;18.336;2022-12-20T15:01:39;0.47;90.55
75010;DHT22;63564;46.840;18.336;2022-12-20T15:04:40;0.33;90.99
75010;DHT22;63564;46.840;18.336;2022-12-20T15:07:40;0.13;91.90
75010;DHT22;63564;46.840;18.336;2022-12-20T15:10:46;0.10;92.20
75010;DHT22;63564;46.840;18.336;2022-12-20T15:13:47;0.35;90.96
75010;DHT22;63564;46.840;18.336;2022-12-20T15:16:51;0.26;91.31
75010;DHT22;63564;46.840;18.336;2022-12-20T15:19:52;0.18;91.78
75010;DHT22;63564;46.840;18.336;2022-12-20T15:22:53;0.25;91.35
75010;DHT22;63564;46.840;18.336;2022-12-20T15:25:53;0.22;91.75
75010;DHT22;63564;46.840;18.336;2022-12-20T15:28:54;0.30;91.36
75010;DHT22;63564;46.840;18.336;2022-12-20T15:32:23;0.43;90.42
75010;DHT22;63564;46.840;18.336;2022-12-20T15:35:25;0.47;90.19
75010;DHT22;63564;46.840;18.336;2022-12-20T15:38:27;0.49;90.13
75010;DHT22;63564;46.840;18.336;2022-12-20T15:41:31;0.33;91.06
75010;DHT22;63564;46.840;18.336;2022-12-20T15:44:32;0.40;91.09
75010;DHT22;63564;46.840;18.336;2022-12-20T15:47:32;0.53;90.47
75010;DHT22;63564;46.840;18.336;2022-12-20T15:50:33;0.43;90.48
75010;DHT22;63564;46.840;18.336;2022-12-20T15:53:33;0.27;91.69
75010;DHT22;63564;46.840;18.336;2022-12-20T15:56:33;0.35;91.13
75010;DHT22;63564;46.840;18.336;2022-12-20T15:59:34;0.29;91.37
75010;DHT22;63564;46.840;18.336;2022-12-20T16:02:35;0.09;92.14
75010;DHT22;63564;46.840;18.336;2022-12-20T16:05:35;-0.16;93.32
75010;DHT22;63564;46.840;18.336;2022-12-20T16:08:35;-0.12;93.26
75010;DHT22;63564;46.840;18.336;2022-12-20T16:11:36;-0.18;93.39
75010;DHT22;63564;46.840;18.336;2022-12-20T16:14:36;-0.21;93.47
75010;DHT22;63564;46.840;18.336;2022-12-20T16:17:37;-0.05;93.25
75010;DHT22;63564;46.840;18.336;2022-12-20T16:20:37;0.10;91.85
75010;DHT22;63564;46.840;18.336;2022-12-20T16:23:38;-0.11;92.42
75010;DHT22;63564;46.840;18.336;2022-12-20T16:26:38;-0.34;93.84
75010;DHT22;63564;46.840;18.336;2022-12-20T16:29:39;-0.40;93.97
75010;DHT22;63564;46.840;18.336;2022-12-20T16:32:40;-0.39;93.93
75010;DHT22;63564;46.840;18.336;2022-12-20T16:35:40;-0.21;93.99
75010;DHT22;63564;46.840;18.336;2022-12-20T16:38:41;-0.18;93.49
75010;DHT22;63564;46.840;18.336;2022-12-20T16:41:41;-0.13;93.06
75010;DHT22;63564;46.840;18.336;2022-12-20T16:44:43;-0.25;92.93
75010;DHT22;63564;46.840;18.336;2022-12-20T16:47:47;-0.26;92.86
75010;DHT22;63564;46.840;18.336;2022-12-20T16:50:48;-0.30;93.33
75010;DHT22;63564;46.840;18.336;2022-12-20T16:56:55;-0.21;93.02
75010;DHT22;63564;46.840;18.336;2022-12-20T16:59:56;-0.13;93.29
75010;DHT22;63564;46.840;18.336;2022-12-20T17:02:57;-0.01;92.57
75010;DHT22;63564;46.840;18.336;2022-12-20T17:05:58;-0.13;92.97
75010;DHT22;63564;46.840;18.336;2022-12-20T17:08:58;-0.12;93.30
75010;DHT22;63564;46.840;18.336;2022-12-20T17:12:00;-0.09;92.82
75010;DHT22;63564;46.840;18.336;2022-12-20T17:15:00;-0.01;92.72
75010;DHT22;63564;46.840;18.336;2022-12-20T17:18:01;0.03;92.91
75010;DHT22;63564;46.840;18.336;2022-12-20T17:21:04;-0.15;93.61
75010;DHT22;63564;46.840;18.336;2022-12-20T17:24:19;-0.18;94.05
75010;DHT22;63564;46.840;18.336;2022-12-20T17:27:19;-0.16;93.67
75010;DHT22;63564;46.840;18.336;2022-12-20T17:30:21;-0.02;93.32
75010;DHT22;63564;46.840;18.336;2022-12-20T17:33:22;0.15;92.40
75010;DHT22;63564;46.840;18.336;2022-12-20T17:36:23;-0.12;93.43
75010;DHT22;63564;46.840;18.336;2022-12-20T17:39:24;-0.16;93.70
75010;DHT22;63564;46.840;18.336;2022-12-20T17:42:25;-0.11;93.23
75010;DHT22;63564;46.840;18.336;2022-12-20T17:45:30;-0.13;93.39
75010;DHT22;63564;46.840;18.336;2022-12-20T17:48:31;0.01;93.13
75010;DHT22;63564;46.840;18.336;2022-12-20T17:51:31;0.30;91.25
75010;DHT22;63564;46.840;18.336;2022-12-20T17:54:32;0.33;91.25
75010;DHT22;63564;46.840;18.336;2022-12-20T17:57:32;0.32;91.11
75010;DHT22;63564;46.840;18.336;2022-12-20T18:00:33;0.23;91.31
75010;DHT22;63564;46.840;18.336;2022-12-20T18:03:33;0.26;91.13
75010;DHT22;63564;46.840;18.336;2022-12-20T18:06:36;0.10;92.23
75010;DHT22;63564;46.840;18.336;2022-12-20T18:09:37;0.09;92.26
75010;DHT22;63564;46.840;18.336;2022-12-20T18:12:37;0.18;92.15
75010;DHT22;63564;46.840;18.336;2022-12-20T18:15:38;0.19;92.04
75010;DHT22;63564;46.840;18.336;2022-12-20T18:18:39;0.03;91.75
75010;DHT22;63564;46.840;18.336;2022-12-20T18:21:39;-0.22;93.25
75010;DHT22;63564;46.840;18.336;2022-12-20T18:24:40;-0.28;93.68
75010;DHT22;63564;46.840;18.336;2022-12-20T18:27:41;-0.33;93.61
75010;DHT22;63564;46.840;18.336;2022-12-20T18:30:42;-0.18;93.66
75010;DHT22;63564;46.840;18.336;2022-12-20T18:33:44;-0.22;93.83
75010;DHT22;63564;46.840;18.336;2022-12-20T18:36:45;-0.12;93.09
75010;DHT22;63564;46.840;18.336;2022-12-20T18:39:45;-0.08;93.18
75010;DHT22;63564;46.840;18.336;2022-12-20T18:42:46;-0.09;92.66
75010;DHT22;63564;46.840;18.336;2022-12-20T18:45:46;-0.18;92.95
75010;DHT22;63564;46.840;18.336;2022-12-20T18:48:49;-0.12;93.15
75010;DHT22;63564;46.840;18.336;2022-12-20T18:51:50;-0.12;93.20
75010;DHT22;63564;46.840;18.336;2022-12-20T18:54:51;-0.23;93.92
75010;DHT22;63564;46.840;18.336;2022-12-20T18:57:51;-0.16;94.04
75010;DHT22;63564;46.840;18.336;2022-12-20T19:00:56;-0.05;93.55
75010;DHT22;63564;46.840;18.336;2022-12-20T19:04:02;-0.08;92.88
75010;DHT22;63564;46.840;18.336;2022-12-20T19:07:03;-0.08;93.19
75010;DHT22;63564;46.840;18.336;2022-12-20T19:10:04;-0.25;93.83
75010;DHT22;63564;46.840;18.336;2022-12-20T19:13:04;-0.29;93.68
75010;DHT22;63564;46.840;18.336;2022-12-20T19:16:08;-0.43;94.61
75010;DHT22;63564;46.840;18.336;2022-12-20T19:19:09;-0.46;94.73
75010;DHT22;63564;46.840;18.336;2022-12-20T19:22:10;-0.29;94.52
75010;DHT22;63564;46.840;18.336;2022-12-20T19:25:10;-0.36;94.34
75010;DHT22;63564;46.840;18.336;2022-12-20T19:28:12;-0.32;94.51
75010;DHT22;63564;46.840;18.336;2022-12-20T19:31:15;-0.37;94.48
75010;DHT22;63564;46.840;18.336;2022-12-20T19:34:16;-0.16;93.49
75010;DHT22;63564;46.840;18.336;2022-12-20T19:37:17;-0.29;93.80
75010;DHT22;63564;46.840;18.336;2022-12-20T19:40:18;-0.33;94.23
75010;DHT22;63564;46.840;18.336;2022-12-20T19:43:19;-0.30;94.27
75010;DHT22;63564;46.840;18.336;2022-12-20T19:46:20;-0.08;92.86
75010;DHT22;63564;46.840;18.336;2022-12-20T19:49:22;-0.06;92.61
75010;DHT22;63564;46.840;18.336;2022-12-20T19:52:22;-0.13;93.18
75010;DHT22;63564;46.840;18.336;2022-12-20T19:55:23;-0.39;94.37
75010;DHT22;63564;46.840;18.336;2022-12-20T19:58:23;-0.23;93.94
75010;DHT22;63564;46.840;18.336;2022-12-20T20:01:25;-0.15;93.22
75010;DHT22;63564;46.840;18.336;2022-12-20T20:04:27;-0.12;93.39
75010;DHT22;63564;46.840;18.336;2022-12-20T20:07:27;-0.47;94.78
75010;DHT22;63564;46.840;18.336;2022-12-20T20:10:28;-0.46;95.30
75010;DHT22;63564;46.840;18.336;2022-12-20T20:13:30;-0.15;94.20
75010;DHT22;63564;46.840;18.336;2022-12-20T20:16:31;-0.05;92.96
75010;DHT22;63564;46.840;18.336;2022-12-20T20:19:31;-0.08;94.20
75010;DHT22;63564;46.840;18.336;2022-12-20T20:22:31;-0.26;95.14
75010;DHT22;63564;46.840;18.336;2022-12-20T20:25:32;-0.15;94.62
75010;DHT22;63564;46.840;18.336;2022-12-20T20:28:34;-0.19;95.10
75010;DHT22;63564;46.840;18.336;2022-12-20T20:31:36;-0.11;94.27
75010;DHT22;63564;46.840;18.336;2022-12-20T20:34:36;-0.23;95.46
75010;DHT22;63564;46.840;18.336;2022-12-20T20:37:37;-0.09;94.92
75010;DHT22;63564;46.840;18.336;2022-12-20T20:40:37;-0.09;95.15